Time;durP1;ratioP1;P1;durP2;ratioP2;P2;SDS_P1;SDS_P2;PMS_P1;PMS_P2;Temp;Humidity;BMP_temperature;BMP_pressure;BME280_temperature;BME280_humidity;BME280_pressure;Samples;Min_cycle;Max_cycle;Signal;HPM_P1;HPM_P2
2021/03/26 00:00:10;;;;;;;2.92;2.10;;;12.60;73.20;;;;;;5112980;28;20039;-42
2021/03/26 00:02:36;;;;;;;2.05;1.85;;;12.60;73.20;;;;;;5112338;28;20039;-41
2021/03/26 00:05:05;;;;;;;2.85;2.28;;;12.60;73.30;;;;;;5112487;28;20043;-41
2021/03/26 00:07:31;;;;;;;2.00;1.80;;;12.60;73.20;;;;;;5112682;28;20403;-41
2021/03/26 00:09:56;;;;;;;2.15;1.95;;;12.70;73.30;;;;;;5114567;28;20067;-41
2021/03/26 00:12:22;;;;;;;2.63;2.10;;;12.70;73.30;;;;;;5116480;28;20054;-39
2021/03/26 00:14:48;;;;;;;3.30;1.98;;;12.60;73.20;;;;;;5116408;28;20050;-40
2021/03/26 00:17:14;;;;;;;2.85;2.30;;;12.60;73.30;;;;;;5117134;28;20040;-42
2021/03/26 00:19:39;;;;;;;2.88;2.10;;;12.60;73.30;;;;;;5116537;28;20399;-39
2021/03/26 00:22:05;;;;;;;2.58;1.98;;;12.60;73.30;;;;;;5116703;28;20043;-40
2021/03/26 00:24:31;;;;;;;2.03;1.83;;;12.60;73.30;;;;;;5116437;28;20123;-39
2021/03/26 00:26:57;;;;;;;2.45;1.83;;;12.60;73.30;;;;;;5114794;28;20453;-42
2021/03/26 00:29:23;;;;;;;3.03;2.25;;;12.60;73.30;;;;;;5116515;28;20047;-41
2021/03/26 00:31:49;;;;;;;2.80;2.08;;;12.60;73.30;;;;;;5116318;28;20404;-40
2021/03/26 00:34:15;;;;;;;2.65;2.00;;;12.60;73.30;;;;;;5116535;28;20036;-41
2021/03/26 00:36:40;;;;;;;2.03;1.83;;;12.60;73.30;;;;;;5116434;28;20043;-39
2021/03/26 00:39:08;;;;;;;2.20;1.98;;;12.60;73.30;;;;;;5116495;28;20065;-39
2021/03/26 00:41:34;;;;;;;2.58;2.03;;;12.60;73.30;;;;;;5116129;28;20112;-39
2021/03/26 00:44:00;;;;;;;2.17;1.92;;;12.60;73.30;;;;;;5116390;28;20131;-39
2021/03/26 00:46:26;;;;;;;3.25;2.08;;;12.60;73.30;;;;;;5114851;28;20134;-39
2021/03/26 00:48:52;;;;;;;2.17;1.85;;;12.60;73.30;;;;;;5116245;28;20040;-39
2021/03/26 00:51:18;;;;;;;3.00;1.92;;;12.60;73.40;;;;;;5116111;28;20052;-40
2021/03/26 00:53:45;;;;;;;2.33;1.95;;;12.60;73.40;;;;;;5115981;28;20051;-41
2021/03/26 00:56:11;;;;;;;2.42;1.90;;;12.50;73.30;;;;;;5115616;28;20124;-39
2021/03/26 00:58:37;;;;;;;1.98;1.75;;;12.60;73.40;;;;;;5115752;28;20056;-39
2021/03/26 01:01:03;;;;;;;2.50;1.65;;;12.60;73.40;;;;;;5116241;28;20044;-39
2021/03/26 01:03:30;;;;;;;2.35;1.88;;;12.60;73.40;;;;;;5116060;28;20051;-41
2021/03/26 01:06:00;;;;;;;1.88;1.60;;;12.60;73.40;;;;;;5115699;28;20400;-40
2021/03/26 01:08:26;;;;;;;2.47;1.60;;;12.60;73.40;;;;;;5113600;28;20048;-38
2021/03/26 01:11:01;;;;;;;1.98;1.70;;;12.60;73.40;;;;;;5115377;28;20135;-38
2021/03/26 01:13:27;;;;;;;2.70;2.17;;;12.60;73.40;;;;;;5115722;28;20112;-39
2021/03/26 01:15:53;;;;;;;3.40;1.77;;;12.60;73.40;;;;;;5115758;28;20078;-41
2021/03/26 01:18:24;;;;;;;1.60;1.50;;;12.60;73.40;;;;;;5115274;28;20159;-40
2021/03/26 01:20:51;;;;;;;2.13;1.80;;;12.60;73.50;;;;;;5115448;28;20043;-41
2021/03/26 01:23:17;;;;;;;3.25;1.95;;;12.50;73.40;;;;;;5115391;28;20051;-40
2021/03/26 01:25:44;;;;;;;2.05;1.80;;;12.60;73.40;;;;;;5115126;28;20036;-39
2021/03/26 01:28:14;;;;;;;2.03;1.90;;;12.60;73.50;;;;;;5113525;28;20044;-40
2021/03/26 01:30:40;;;;;;;3.20;2.15;;;12.60;73.50;;;;;;5115225;28;20039;-42
2021/03/26 01:33:06;;;;;;;2.92;1.90;;;12.50;73.40;;;;;;5115203;28;20135;-41
2021/03/26 01:35:32;;;;;;;1.85;1.73;;;12.60;73.50;;;;;;5115254;28;20460;-40
2021/03/26 01:37:58;;;;;;;2.10;1.90;;;12.60;73.50;;;;;;5115025;28;20105;-38
2021/03/26 01:40:27;;;;;;;1.80;1.70;;;12.50;73.40;;;;;;5115349;28;20052;-40
2021/03/26 01:43:02;;;;;;;1.60;1.50;;;12.50;73.40;;;;;;5114950;28;20043;-41
2021/03/26 01:45:28;;;;;;;2.53;1.90;;;12.50;73.50;;;;;;5113293;28;20090;-40
2021/03/26 01:47:55;;;;;;;2.28;1.88;;;12.50;73.50;;;;;;5114788;28;20496;-39
2021/03/26 01:50:24;;;;;;;1.80;1.60;;;12.50;73.40;;;;;;5114711;28;20054;-41
2021/03/26 01:52:50;;;;;;;2.95;2.00;;;12.50;73.50;;;;;;5114881;28;20118;-42
2021/03/26 01:55:27;;;;;;;2.13;1.92;;;12.50;73.50;;;;;;5114740;28;20135;-40
2021/03/26 01:57:52;;;;;;;1.65;1.50;;;12.50;73.50;;;;;;5113407;28;20042;-40
2021/03/26 02:00:34;;;;;;;1.85;1.70;;;12.50;73.50;;;;;;5114516;28;20031;-40
2021/03/26 02:03:11;;;;;;;2.00;1.80;;;12.50;73.50;;;;;;5113270;28;20059;-40
2021/03/26 02:05:37;;;;;;;2.15;1.80;;;12.50;73.50;;;;;;5114537;28;20082;-41
2021/03/26 02:08:03;;;;;;;2.63;1.83;;;12.50;73.50;;;;;;5115036;28;20067;-41
2021/03/26 02:10:29;;;;;;;2.05;1.67;;;12.50;73.50;;;;;;5114603;28;20055;-40
2021/03/26 02:13:04;;;;;;;1.70;1.60;;;12.50;73.50;;;;;;5114340;28;20081;-39
2021/03/26 02:15:44;;;;;;;2.20;1.63;;;12.50;73.50;;;;;;5112643;28;20040;-40
2021/03/26 02:18:18;;;;;;;1.88;1.50;;;12.50;73.50;;;;;;5112884;28;20043;-41
2021/03/26 02:20:49;;;;;;;2.50;1.70;;;12.50;73.60;;;;;;5112092;28;20036;-38
2021/03/26 02:23:23;;;;;;;3.08;1.77;;;12.50;73.60;;;;;;5114534;28;20044;-40
2021/03/26 02:25:51;;;;;;;1.73;1.63;;;12.50;73.60;;;;;;5112606;28;20113;-39
2021/03/26 02:28:18;;;;;;;1.75;1.65;;;12.50;73.60;;;;;;5114410;28;20130;-40
2021/03/26 02:30:48;;;;;;;2.20;1.98;;;12.50;73.60;;;;;;5111130;28;20096;-40
2021/03/26 02:33:14;;;;;;;2.85;1.90;;;12.50;73.60;;;;;;5113762;28;20124;-39
2021/03/26 02:36:11;;;;;;;2.95;2.00;;;12.50;73.60;;;;;;5114215;28;20036;-38
2021/03/26 02:38:54;;;;;;;1.63;1.40;;;12.50;73.60;;;;;;5113430;28;20120;-40
2021/03/26 02:41:40;;;;;;;2.33;1.73;;;12.50;73.60;;;;;;5113960;27;20124;-39
2021/03/26 02:44:17;;;;;;;;;;;12.50;73.60;;;;;;5112209;28;20104;-40
2021/03/26 02:46:59;;;;;;;2.05;1.80;;;12.50;73.60;;;;;;5112010;28;19919;-41
2021/03/26 02:49:31;;;;;;;2.85;1.85;;;12.50;73.60;;;;;;5111786;28;20046;-39
2021/03/26 02:52:03;;;;;;;1.75;1.35;;;12.50;73.60;;;;;;5113671;28;20400;-40
2021/03/26 02:54:49;;;;;;;1.92;1.80;;;12.50;73.60;;;;;;5114038;28;20052;-40
2021/03/26 02:57:21;;;;;;;1.60;1.50;;;12.50;73.70;;;;;;5112956;28;20071;-41
2021/03/26 03:00:08;;;;;;;2.00;1.70;;;12.50;74.30;;;;;;5113713;28;20115;-39
2021/03/26 03:02:36;;;;;;;1.85;1.50;;;12.50;73.70;;;;;;5112459;28;20054;-41
2021/03/26 03:05:10;;;;;;;1.85;1.65;;;12.50;73.70;;;;;;5111458;28;20585;-39
2021/03/26 03:07:43;;;;;;;2.28;1.73;;;12.50;73.70;;;;;;5113583;28;20122;-38
2021/03/26 03:10:28;;;;;;;2.78;1.85;;;12.50;73.70;;;;;;5113474;28;20128;-40
2021/03/26 03:13:10;;;;;;;1.67;1.58;;;12.50;73.70;;;;;;5112653;28;20091;-40
2021/03/26 03:15:43;;;;;;;1.85;1.70;;;12.50;73.70;;;;;;5112257;28;20122;-38
2021/03/26 03:18:20;;;;;;;1.83;1.70;;;12.50;73.70;;;;;;5113291;28;20082;-41
2021/03/26 03:21:01;;;;;;;2.05;1.75;;;12.50;73.70;;;;;;5111663;28;20430;-40
2021/03/26 03:23:44;;;;;;;1.92;1.48;;;12.50;73.70;;;;;;5111392;28;20093;-38
2021/03/26 03:26:21;;;;;;;1.95;1.60;;;12.50;73.70;;;;;;5111806;28;20044;-39
2021/03/26 03:29:07;;;;;;;1.63;1.50;;;12.50;73.70;;;;;;5111414;28;20046;-39
2021/03/26 03:31:36;;;;;;;;;;;12.50;73.70;;;;;;5112066;28;20070;-40
2021/03/26 03:34:13;;;;;;;1.60;1.40;;;12.40;73.70;;;;;;5110167;28;20363;-39
2021/03/26 03:36:53;;;;;;;2.03;1.60;;;12.40;73.70;;;;;;5113140;28;20035;-40
2021/03/26 03:39:26;;;;;;;1.92;1.70;;;12.40;73.70;;;;;;5112878;28;20061;-39
2021/03/26 03:42:10;;;;;;;1.70;1.60;;;12.50;73.80;;;;;;5113144;28;20100;-40
2021/03/26 03:44:55;;;;;;;1.60;1.50;;;12.50;73.70;;;;;;5111455;28;20488;-39
2021/03/26 03:47:49;;;;;;;2.85;1.70;;;12.40;73.70;;;;;;5112783;28;20047;-39
2021/03/26 03:50:32;;;;;;;1.58;1.48;;;12.50;73.70;;;;;;5112237;28;20165;-40
2021/03/26 03:53:18;;;;;;;1.92;1.67;;;12.40;73.70;;;;;;5112219;28;20181;-40
2021/03/26 03:56:02;;;;;;;1.88;1.77;;;12.50;73.70;;;;;;5112233;28;20507;-47
2021/03/26 03:58:30;;;;;;;1.58;1.40;;;12.50;73.70;;;;;;5110752;28;20071;-40
2021/03/26 04:01:30;;;;;;;1.92;1.30;;;12.40;73.70;;;;;;5112713;28;20118;-44
2021/03/26 04:04:09;;;;;;;1.45;1.35;;;12.50;73.80;;;;;;5111482;28;20050;-41
2021/03/26 04:07:00;;;;;;;2.20;1.42;;;12.50;73.80;;;;;;5111307;28;20039;-41
2021/03/26 04:09:36;;;;;;;1.52;1.42;;;12.50;73.80;;;;;;5110080;28;20035;-41
2021/03/26 04:12:12;;;;;;;1.67;1.52;;;12.40;73.70;;;;;;5112768;28;20092;-39
2021/03/26 04:15:00;;;;;;;1.83;1.50;;;12.40;73.70;;;;;;5112682;28;20269;-40
2021/03/26 04:17:32;;;;;;;2.58;1.67;;;12.40;73.70;;;;;;5112120;28;20054;-41
2021/03/26 04:20:03;;;;;;;1.55;1.45;;;12.40;73.70;;;;;;5112734;28;20050;-41
2021/03/26 04:22:37;;;;;;;2.35;1.45;;;12.40;73.80;;;;;;5110406;28;20122;-41
2021/03/26 04:25:26;;;;;;;1.80;1.27;;;12.40;73.70;;;;;;5110515;28;20063;-41
2021/03/26 04:28:08;;;;;;;1.90;1.48;;;12.50;73.80;;;;;;5111346;28;20035;-41
2021/03/26 04:30:42;;;;;;;2.42;1.55;;;12.50;73.80;;;;;;5112529;28;20387;-40
2021/03/26 04:33:08;;;;;;;1.90;1.70;;;12.40;73.80;;;;;;5111584;28;20412;-39
2021/03/26 04:35:35;;;;;;;3.40;1.60;;;12.40;73.80;;;;;;5112640;28;20073;-43
2021/03/26 04:38:07;;;;;;;1.88;1.60;;;12.40;73.70;;;;;;5112262;28;20050;-38
2021/03/26 04:40:36;;;;;;;1.80;1.60;;;12.50;73.80;;;;;;5111865;28;20035;-44
2021/03/26 04:43:10;;;;;;;1.95;1.75;;;12.40;73.80;;;;;;5110730;28;20052;-41
2021/03/26 04:45:45;;;;;;;2.35;1.80;;;12.40;73.80;;;;;;5109718;28;20047;-41
2021/03/26 04:48:22;;;;;;;1.80;1.30;;;12.40;73.80;;;;;;5111694;28;20047;-40
2021/03/26 04:50:59;;;;;;;3.00;1.58;;;12.40;73.80;;;;;;5111016;28;20400;-40
2021/03/26 04:53:42;;;;;;;1.88;1.70;;;12.40;73.80;;;;;;5110677;28;20044;-43
2021/03/26 04:56:14;;;;;;;1.85;1.50;;;12.40;73.80;;;;;;5114260;28;20040;-40
2021/03/26 04:58:46;;;;;;;1.55;1.45;;;12.40;73.80;;;;;;5113793;28;20071;-42
2021/03/26 05:01:15;;;;;;;1.63;1.33;;;12.50;73.80;;;;;;5115518;28;20096;-40
2021/03/26 05:03:48;;;;;;;2.05;1.75;;;12.40;73.70;;;;;;5115571;28;20047;-39
2021/03/26 05:06:24;;;;;;;1.85;1.60;;;12.40;73.80;;;;;;5116074;28;20036;-40
2021/03/26 05:09:13;;;;;;;2.08;1.88;;;12.50;73.80;;;;;;5115991;28;20036;-42
2021/03/26 05:11:43;;;;;;;1.88;1.70;;;12.40;73.80;;;;;;5115667;28;20039;-41
2021/03/26 05:14:17;;;;;;;2.75;1.83;;;12.40;73.80;;;;;;5116014;28;20048;-41
2021/03/26 05:16:43;;;;;;;1.98;1.75;;;12.40;73.80;;;;;;5113637;28;20404;-40
2021/03/26 05:19:40;;;;;;;2.08;1.60;;;12.40;73.80;;;;;;5115276;28;20040;-41
2021/03/26 05:22:43;;;;;;;1.98;1.58;;;12.40;73.80;;;;;;5114888;28;20071;-41
2021/03/26 05:25:25;;;;;;;2.45;2.05;;;12.40;73.80;;;;;;5114014;28;20040;-41
2021/03/26 05:27:52;;;;;;;2.25;1.90;;;12.40;73.80;;;;;;5114726;28;20100;-41
2021/03/26 05:30:41;;;;;;;3.03;2.03;;;12.40;73.80;;;;;;5113963;28;20055;-41
2021/03/26 05:33:19;;;;;;;2.05;1.73;;;12.40;73.80;;;;;;5113981;28;20047;-39
2021/03/26 05:35:50;;;;;;;1.95;1.70;;;12.40;73.80;;;;;;5114173;28;20583;-39
2021/03/26 05:38:21;;;;;;;2.72;2.03;;;12.40;73.80;;;;;;5112581;28;20048;-39
2021/03/26 05:40:46;;;;;;;2.42;1.95;;;12.40;73.80;;;;;;5115523;28;20377;-40
2021/03/26 05:43:24;;;;;;;1.90;1.58;;;12.40;73.80;;;;;;5114794;28;20039;-39
2021/03/26 05:45:50;;;;;;;1.90;1.70;;;12.40;73.80;;;;;;5115315;28;20098;-39
2021/03/26 05:48:33;;;;;;;2.45;2.10;;;12.40;73.80;;;;;;5115419;28;20171;-39
2021/03/26 05:51:31;;;;;;;1.88;1.75;;;12.40;73.80;;;;;;5112881;28;20050;-39
2021/03/26 05:54:29;;;;;;;2.20;1.70;;;12.40;74.50;;;;;;5114742;28;20032;-39
2021/03/26 05:57:28;;;;;;;1.85;1.70;;;12.40;73.80;;;;;;5071656;28;20044;-41
2021/03/26 06:00:19;;;;;;;2.05;1.80;;;12.40;73.80;;;;;;5072036;28;20040;-40
2021/03/26 06:03:18;;;;;;;3.42;2.42;;;12.40;73.80;;;;;;5071961;28;20512;-39
2021/03/26 06:06:16;;;;;;;2.97;2.00;;;12.40;73.80;;;;;;5071335;28;20412;-40
2021/03/26 06:09:01;;;;;;;2.38;2.13;;;12.40;73.80;;;;;;5072396;28;20117;-38
2021/03/26 06:12:00;;;;;;;2.42;1.85;;;12.40;73.80;;;;;;5072130;28;20044;-39
2021/03/26 06:14:35;;;;;;;2.50;2.20;;;12.40;73.80;;;;;;5072463;28;20052;-40
2021/03/26 06:17:28;;;;;;;2.50;2.20;;;12.40;73.90;;;;;;5072334;28;20428;-40
2021/03/26 06:20:32;;;;;;;2.83;2.20;;;12.40;73.90;;;;;;5072087;28;20052;-39
2021/03/26 06:23:16;;;;;;;2.20;1.98;;;12.40;73.80;;;;;;5071023;28;20040;-40
2021/03/26 06:26:00;;;;;;;5.35;2.13;;;12.40;73.80;;;;;;5071972;28;20063;-39
2021/03/26 06:28:44;;;;;;;3.42;1.95;;;12.40;73.80;;;;;;5072143;28;20048;-40
2021/03/26 06:31:30;;;;;;;2.90;2.13;;;12.40;73.80;;;;;;5072007;28;20059;-39
2021/03/26 06:34:35;;;;;;;2.78;2.15;;;12.40;73.90;;;;;;5078907;28;20056;-39
2021/03/26 06:37:43;;;;;;;2.67;2.25;;;12.40;73.80;;;;;;5094182;28;20068;-39
2021/03/26 06:40:28;;;;;;;2.63;2.35;;;12.40;74.50;;;;;;5094117;28;20055;-40
2021/03/26 06:43:00;;;;;;;2.70;2.05;;;12.40;73.80;;;;;;5102639;28;20053;-37
2021/03/26 06:45:44;;;;;;;2.35;2.03;;;12.40;73.90;;;;;;5114656;28;20047;-40
2021/03/26 06:48:50;;;;;;;2.60;2.00;;;12.40;73.90;;;;;;5112552;28;20423;-39
2021/03/26 06:51:44;;;;;;;2.60;2.20;;;12.40;73.90;;;;;;5113045;28;20130;-40
2021/03/26 06:54:28;;;;;;;4.22;2.30;;;12.40;73.90;;;;;;5112609;28;20071;-41
2021/03/26 06:56:57;;;;;;;2.90;2.15;;;12.40;73.90;;;;;;5113444;28;20043;-40
2021/03/26 06:59:57;;;;;;;2.33;2.10;;;12.40;73.90;;;;;;5113941;28;20044;-38
2021/03/26 07:02:42;;;;;;;3.22;2.38;;;12.40;73.90;;;;;;5111274;28;20468;-40
2021/03/26 07:05:13;;;;;;;2.53;2.30;;;12.40;73.90;;;;;;5112113;28;20051;-40
2021/03/26 07:08:16;;;;;;;3.13;2.17;;;12.40;73.90;;;;;;5113394;28;20039;-39
2021/03/26 07:10:57;;;;;;;4.03;2.95;;;12.40;73.90;;;;;;5111245;28;20432;-38
2021/03/26 07:13:50;;;;;;;2.92;2.25;;;12.40;73.90;;;;;;5111184;28;20058;-41
2021/03/26 07:16:27;;;;;;;3.47;2.70;;;12.40;73.90;;;;;;5113193;28;20050;-40
2021/03/26 07:19:31;;;;;;;2.83;2.53;;;12.40;73.90;;;;;;5113389;28;20185;-40
2021/03/26 07:22:12;;;;;;;3.33;2.60;;;12.40;73.90;;;;;;5070492;28;20127;-38
2021/03/26 07:24:55;;;;;;;3.20;2.13;;;12.30;73.90;;;;;;5069772;28;20585;-39
2021/03/26 07:27:48;;;;;;;2.90;2.40;;;12.40;73.90;;;;;;5070984;28;20049;-39
2021/03/26 07:30:52;;;;;;;3.83;2.47;;;12.40;73.90;;;;;;5070806;28;20493;-38
2021/03/26 07:33:33;;;;;;;2.80;2.17;;;12.40;73.90;;;;;;5070481;28;20067;-38
2021/03/26 07:36:27;;;;;;;3.08;2.50;;;12.40;73.90;;;;;;5071078;28;20048;-38
2021/03/26 07:39:06;;;;;;;3.38;2.67;;;12.40;73.90;;;;;;5069964;28;20190;-39
2021/03/26 07:42:04;;;;;;;3.33;2.42;;;12.40;73.90;;;;;;5070546;28;20049;-38
2021/03/26 07:45:00;;;;;;;3.55;2.80;;;12.40;73.90;;;;;;5030327;28;20057;-39
2021/03/26 07:47:42;;;;;;;3.35;2.60;;;12.40;73.90;;;;;;5028830;28;20593;-39
2021/03/26 07:50:26;;;;;;;3.90;2.72;;;12.40;73.90;;;;;;5029819;28;20070;-37
2021/03/26 07:52:52;;;;;;;3.05;2.45;;;12.40;73.90;;;;;;5029819;28;20124;-38
2021/03/26 07:55:46;;;;;;;3.35;2.83;;;12.40;73.90;;;;;;5029863;28;20120;-39
2021/03/26 07:58:49;;;;;;;3.35;2.47;;;12.40;73.90;;;;;;5075742;28;20069;-37
2021/03/26 08:01:20;;;;;;;3.47;2.65;;;12.40;73.90;;;;;;5090397;28;20059;-38
2021/03/26 08:03:53;;;;;;;4.40;2.95;;;12.40;73.90;;;;;;5090376;28;20101;-39
2021/03/26 08:06:36;;;;;;;4.72;2.85;;;12.40;73.90;;;;;;5087611;28;20048;-43
2021/03/26 08:09:26;;;;;;;4.07;3.08;;;12.40;73.90;;;;;;5087909;28;20044;-40
2021/03/26 08:11:57;;;;;;;4.22;2.75;;;12.40;74.00;;;;;;5089414;28;20048;-41
2021/03/26 08:15:00;;;;;;;3.63;2.67;;;12.40;73.90;;;;;;5090176;28;20048;-41
2021/03/26 08:17:55;;;;;;;4.05;2.70;;;12.40;73.90;;;;;;5088971;28;20052;-41
2021/03/26 08:20:38;;;;;;;3.58;2.90;;;12.40;73.90;;;;;;5083956;28;20056;-40
2021/03/26 08:23:13;;;;;;;3.75;2.83;;;12.40;73.90;;;;;;5100354;28;20043;-41
2021/03/26 08:25:44;;;;;;;3.25;2.65;;;12.40;74.00;;;;;;5110341;28;20040;-40
2021/03/26 08:28:29;;;;;;;3.67;2.72;;;12.40;73.90;;;;;;5112633;28;20059;-40
2021/03/26 08:31:09;;;;;;;3.67;2.63;;;12.40;74.00;;;;;;5115743;28;20050;-40
2021/03/26 08:34:04;;;;;;;3.47;2.85;;;12.40;74.00;;;;;;5115451;28;20500;-41
2021/03/26 08:36:42;;;;;;;3.60;2.80;;;12.40;73.90;;;;;;5116253;28;20051;-45
2021/03/26 08:39:25;;;;;;;9.85;7.38;;;12.40;74.00;;;;;;5115593;28;20046;-41
2021/03/26 08:42:16;;;;;;;12.57;8.82;;;12.40;73.60;;;;;;5095868;28;20044;-40
2021/03/26 08:45:06;;;;;;;13.38;8.48;;;12.40;73.70;;;;;;5096499;28;20400;-43
2021/03/26 08:47:52;;;;;;;12.15;8.75;;;12.40;73.80;;;;;;5096403;28;20109;-44
2021/03/26 08:50:29;;;;;;;12.55;8.20;;;12.40;73.80;;;;;;5101678;28;20040;-42
2021/03/26 08:53:08;;;;;;;10.52;7.38;;;12.30;73.70;;;;;;5116764;28;20081;-40
2021/03/26 08:56:04;;;;;;;12.82;7.90;;;12.40;73.80;;;;;;5115803;28;20543;-42
2021/03/26 08:59:03;;;;;;;11.25;8.30;;;12.40;73.90;;;;;;5116571;28;20050;-40
2021/03/26 09:01:58;;;;;;;11.93;8.57;;;12.40;73.90;;;;;;5116271;27;20043;-42
2021/03/26 09:04:58;;;;;;;9.93;7.97;;;12.40;73.90;;;;;;5116531;28;20554;-41
2021/03/26 09:07:48;;;;;;;11.43;7.82;;;12.40;73.90;;;;;;5116666;28;20493;-42
2021/03/26 09:10:14;;;;;;;19.17;11.50;;;12.40;73.60;;;;;;5115794;28;20065;-41
2021/03/26 09:13:02;;;;;;;17.50;12.02;;;12.40;73.70;;;;;;5115163;28;20522;-42
2021/03/26 09:16:04;;;;;;;19.45;10.45;;;12.30;73.70;;;;;;5113275;28;20075;-44
2021/03/26 09:18:49;;;;;;;13.10;9.75;;;12.40;73.80;;;;;;5113563;28;20040;-43
2021/03/26 09:21:39;;;;;;;17.55;11.35;;;12.30;73.70;;;;;;5114439;28;20051;-43
2021/03/26 09:24:35;;;;;;;16.88;10.88;;;12.30;73.80;;;;;;5115436;28;20045;-42
2021/03/26 09:27:07;;;;;;;15.15;11.00;;;12.30;73.70;;;;;;5114981;28;20047;-42
2021/03/26 09:29:49;;;;;;;17.20;9.93;;;12.40;73.80;;;;;;5113521;28;20039;-46
2021/03/26 09:32:24;;;;;;;14.68;9.68;;;12.40;73.80;;;;;;5113231;28;20074;-41
2021/03/26 09:35:13;;;;;;;14.77;9.73;;;12.40;73.80;;;;;;5113095;28;20039;-44
2021/03/26 09:37:51;;;;;;;15.18;9.38;;;12.40;73.80;;;;;;5114089;28;20495;-44
2021/03/26 09:40:45;;;;;;;13.88;9.68;;;12.40;73.80;;;;;;5113768;28;20040;-47
2021/03/26 09:43:13;;;;;;;13.85;9.43;;;12.40;73.90;;;;;;5068038;28;20219;-42
2021/03/26 09:45:46;;;;;;;15.63;9.80;;;12.40;73.90;;;;;;5052866;28;20063;-45
2021/03/26 09:48:27;;;;;;;14.98;10.13;;;12.40;73.90;;;;;;5052966;28;20053;-44
2021/03/26 09:51:08;;;;;;;13.52;9.70;;;12.40;73.90;;;;;;5052635;28;20126;-44
2021/03/26 09:53:37;;;;;;;13.45;8.27;;;12.40;73.90;;;;;;5052689;28;20186;-43
2021/03/26 09:56:17;;;;;;;12.07;9.25;;;12.40;73.90;;;;;;5068223;28;20048;-42
2021/03/26 09:58:51;;;;;;;12.50;8.98;;;12.40;73.90;;;;;;5067797;28;20049;-40
2021/03/26 10:01:48;;;;;;;12.02;8.85;;;12.40;73.90;;;;;;5071272;28;20040;-39
2021/03/26 10:04:20;;;;;;;12.35;8.90;;;12.40;73.90;;;;;;5063923;28;20068;-40
2021/03/26 10:07:13;;;;;;;11.68;8.77;;;12.40;73.90;;;;;;5066258;28;20062;-42
2021/03/26 10:09:45;;;;;;;13.77;9.02;;;12.40;73.90;;;;;;5071284;28;20048;-44
2021/03/26 10:12:19;;;;;;;12.98;8.75;;;12.40;73.90;;;;;;5071141;28;20140;-44
2021/03/26 10:14:57;;;;;;;12.70;8.98;;;12.50;73.90;;;;;;5071074;28;20127;-41
2021/03/26 10:17:40;;;;;;;11.23;7.60;;;12.50;73.90;;;;;;5070478;28;20071;-41
2021/03/26 10:20:16;;;;;;;13.20;7.63;;;12.50;73.90;;;;;;5089854;28;20122;-44
2021/03/26 10:23:04;;;;;;;11.02;8.05;;;12.50;73.90;;;;;;5111668;28;20468;-41
2021/03/26 10:25:43;;;;;;;10.45;7.82;;;12.50;73.90;;;;;;5113064;28;20117;-42
2021/03/26 10:28:23;;;;;;;10.85;7.97;;;12.50;73.90;;;;;;5112698;28;20040;-44
2021/03/26 10:30:53;;;;;;;12.27;7.50;;;12.50;73.90;;;;;;5112373;28;20051;-43
2021/03/26 10:33:21;;;;;;;10.30;7.63;;;12.50;73.90;;;;;;5110853;28;20063;-43
2021/03/26 10:36:13;;;;;;;10.48;7.20;;;12.50;73.90;;;;;;5113711;28;20048;-43
2021/03/26 10:38:53;;;;;;;11.02;7.45;;;12.50;73.90;;;;;;5112617;28;20047;-43
2021/03/26 10:41:43;;;;;;;10.25;7.50;;;12.60;73.90;;;;;;5110915;28;20101;-40
2021/03/26 10:44:30;;;;;;;10.15;7.50;;;12.60;73.90;;;;;;5110827;28;20105;-42
2021/03/26 10:47:24;;;;;;;10.85;6.93;;;12.60;73.90;;;;;;5111745;28;20047;-41
2021/03/26 10:50:00;;;;;;;11.35;7.50;;;12.60;73.90;;;;;;5110880;28;20047;-42
2021/03/26 10:52:34;;;;;;;9.68;6.45;;;12.60;73.80;;;;;;5113227;28;20441;-41
2021/03/26 10:55:08;;;;;;;8.95;6.55;;;12.60;73.80;;;;;;5111395;28;20036;-43
2021/03/26 10:58:04;;;;;;;10.02;7.32;;;12.60;73.80;;;;;;5111415;28;20118;-41
2021/03/26 11:00:34;;;;;;;;;;;12.60;73.80;;;;;;5111000;28;20044;-42
2021/03/26 11:03:15;;;;;;;8.55;6.40;;;12.60;73.80;;;;;;5110886;28;19920;-41
2021/03/26 11:05:59;;;;;;;9.35;6.78;;;12.60;73.80;;;;;;5112395;28;20074;-43
2021/03/26 11:08:34;;;;;;;8.70;6.40;;;12.60;73.80;;;;;;5110829;28;20046;-43
2021/03/26 11:11:09;;;;;;;8.25;6.30;;;12.70;73.80;;;;;;5109495;28;20059;-45
2021/03/26 11:13:59;;;;;;;8.17;6.33;;;12.70;73.80;;;;;;5111769;28;20041;-41
2021/03/26 11:16:47;;;;;;;6.72;5.65;;;12.70;73.70;;;;;;5108167;28;20178;-47
2021/03/26 11:19:31;;;;;;;7.75;6.07;;;12.70;73.70;;;;;;5109496;28;20047;-40
2021/03/26 11:22:13;;;;;;;8.05;5.70;;;12.70;73.70;;;;;;5112177;28;20055;-41
2021/03/26 11:24:42;;;;;;;7.93;5.55;;;12.70;73.70;;;;;;5109261;28;20093;-40
2021/03/26 11:27:24;;;;;;;7.45;5.18;;;12.70;73.60;;;;;;5111449;28;20039;-45
2021/03/26 11:30:36;;;;;;;8.23;5.97;;;12.70;73.60;;;;;;5111012;28;20036;-44
2021/03/26 11:33:24;;;;;;;6.28;5.60;;;12.80;73.60;;;;;;5091117;28;20052;-42
2021/03/26 11:35:55;;;;;;;6.85;5.20;;;12.80;73.60;;;;;;5092805;28;20048;-43
2021/03/26 11:38:25;;;;;;;7.60;5.30;;;12.80;73.60;;;;;;5092038;28;20052;-43
2021/03/26 11:41:02;;;;;;;6.88;4.70;;;12.80;73.60;;;;;;5097318;28;20043;-40
2021/03/26 11:43:35;;;;;;;7.25;5.25;;;12.90;73.60;;;;;;5111002;28;20039;-46
2021/03/26 11:46:06;;;;;;;5.72;4.72;;;12.80;73.50;;;;;;5111188;28;20051;-47
2021/03/26 11:49:12;;;;;;;7.10;5.38;;;12.80;73.50;;;;;;5110987;28;20043;-40
2021/03/26 11:52:09;;;;;;;7.20;5.07;;;12.90;73.50;;;;;;5109785;28;20135;-40
2021/03/26 11:55:00;;;;;;;8.00;4.90;;;12.90;73.50;;;;;;5107823;28;20070;-39
2021/03/26 11:58:00;;;;;;;5.85;4.18;;;12.90;73.50;;;;;;5107048;28;20403;-42
2021/03/26 12:00:28;;;;;;;6.03;4.70;;;12.90;73.40;;;;;;5111953;28;20499;-41
2021/03/26 12:02:54;;;;;;;5.70;4.40;;;12.90;73.40;;;;;;5111058;28;20059;-42
2021/03/26 12:05:33;;;;;;;6.15;4.40;;;12.90;73.30;;;;;;5105845;28;20448;-46
2021/03/26 12:08:03;;;;;;;6.05;4.30;;;13.00;73.30;;;;;;5113007;28;20043;-42
2021/03/26 12:10:41;;;;;;;6.15;4.43;;;12.90;73.20;;;;;;5112067;28;20078;-43
2021/03/26 12:13:13;;;;;;;5.28;4.18;;;13.00;73.30;;;;;;5110355;28;20507;-40
2021/03/26 12:16:07;;;;;;;5.25;4.00;;;13.00;73.20;;;;;;5112665;28;20055;-45
2021/03/26 12:18:45;;;;;;;6.03;4.20;;;13.00;73.20;;;;;;5097916;28;20411;-42
2021/03/26 12:21:31;;;;;;;5.10;4.10;;;13.00;73.20;;;;;;5112158;28;20051;-43
2021/03/26 12:24:30;;;;;;;5.93;3.92;;;13.00;73.10;;;;;;5112453;28;20044;-43
2021/03/26 12:26:59;;;;;;;5.47;4.00;;;13.00;73.10;;;;;;5111883;28;20075;-47
2021/03/26 12:29:34;;;;;;;4.30;3.35;;;13.10;73.20;;;;;;5112939;28;20165;-44
2021/03/26 12:32:05;;;;;;;4.30;3.65;;;13.10;73.10;;;;;;5112390;28;20126;-45
2021/03/26 12:34:55;;;;;;;4.90;3.70;;;13.10;73.10;;;;;;5112260;28;20490;-45
2021/03/26 12:37:31;;;;;;;4.68;3.45;;;13.10;73.00;;;;;;5112693;28;20496;-42
2021/03/26 12:40:19;;;;;;;4.93;3.90;;;13.10;73.00;;;;;;5112801;28;20122;-47
2021/03/26 12:42:51;;;;;;;4.93;3.70;;;13.10;73.00;;;;;;5112781;28;20077;-45
2021/03/26 12:45:25;;;;;;;4.05;2.75;;;13.10;73.00;;;;;;5112467;28;20135;-47
2021/03/26 12:48:01;;;;;;;4.32;3.25;;;13.10;72.90;;;;;;5109698;28;20047;-45
2021/03/26 12:50:46;;;;;;;5.20;3.72;;;13.20;72.90;;;;;;5111941;28;20063;-41
2021/03/26 12:53:14;;;;;;;4.70;3.25;;;13.10;72.90;;;;;;5112388;28;20073;-46
2021/03/26 12:55:56;;;;;;;5.00;3.13;;;13.20;72.90;;;;;;5111668;28;20050;-49
2021/03/26 12:58:46;;;;;;;4.18;3.03;;;13.20;72.90;;;;;;5112720;28;20040;-47
2021/03/26 13:01:30;;;;;;;4.45;2.92;;;13.20;72.90;;;;;;5112968;28;20052;-51
2021/03/26 13:04:10;;;;;;;4.93;2.85;;;13.20;72.80;;;;;;5111815;28;20039;-47
2021/03/26 13:06:43;;;;;;;3.70;2.88;;;13.20;72.80;;;;;;5111278;28;20138;-46
2021/03/26 13:09:31;;;;;;;3.05;2.72;;;13.20;72.80;;;;;;5111699;28;20088;-49
2021/03/26 13:12:10;;;;;;;3.42;2.92;;;13.20;72.90;;;;;;5108516;28;20139;-47
2021/03/26 13:15:00;;;;;;;3.70;2.72;;;13.20;72.70;;;;;;5111935;28;20100;-47
2021/03/26 13:17:30;;;;;;;4.55;3.20;;;13.20;72.70;;;;;;5112824;28;20050;-43
2021/03/26 13:20:13;;;;;;;3.60;2.88;;;13.20;72.70;;;;;;5115311;28;20036;-50
2021/03/26 13:22:42;;;;;;;3.40;2.72;;;13.20;72.70;;;;;;5114344;28;20074;-47
2021/03/26 13:25:17;;;;;;;3.53;2.53;;;13.20;72.70;;;;;;5112273;28;20103;-49
2021/03/26 13:27:55;;;;;;;3.25;2.40;;;13.20;72.70;;;;;;5115741;28;20075;-46
2021/03/26 13:30:27;;;;;;;3.65;2.70;;;13.20;72.70;;;;;;5114595;28;20122;-40
2021/03/26 13:32:55;;;;;;;3.42;2.33;;;13.20;72.70;;;;;;5112216;28;20488;-48
2021/03/26 13:35:26;;;;;;;4.28;2.80;;;13.20;72.60;;;;;;5115122;28;20059;-48
2021/03/26 13:37:58;;;;;;;3.28;2.20;;;13.30;72.60;;;;;;5113487;28;20122;-43
2021/03/26 13:40:25;;;;;;;2.97;2.20;;;13.30;72.70;;;;;;5114482;28;20039;-43
2021/03/26 13:43:11;;;;;;;2.75;2.22;;;13.30;72.60;;;;;;5115138;28;20480;-44
2021/03/26 13:45:45;;;;;;;3.25;2.30;;;13.30;72.60;;;;;;5113843;28;20502;-46